Accueil
METAR-TAF:

METAR-TAF

Aéroports :

Aéroport international de Bergame-Orio al Serio (Le Caravage)

Bergame, Italie

latitude: 45-40N, longitude: 009-42E, altitude: 238 m

Observation

Le bulletin a été fait il y a 26 minutes, à 16:20 UTC
Vent 5 kt de sud-est
Température 14°C
Humidité 77%
Pression 1023 hPa
Visibilité 10 km ou plus
pas de nuages en-dessous de 1500 mètres et pas de cumulonimbus.

METAR: LIME 301620Z 14005KT CAVOK 14/10 Q1023 NOSIG

Heure: 17:46 (16:46 UTC)

Prévision

Le bulletin a été fait il y a 5 heures et 46 minutes, à 11:00 UTC
Prévision valable du 30 à 12 UTC au 31 à 12 UTC
Vent 4 kt de direction variable
Visibilité 10 km ou plus
pas de nuages en-dessous de 1500 mètres et pas de cumulonimbus.
Temporairement
du 31 à 00 UTC au 31 à 06 UTC
Visibilité: 3000 m
brume

TAF: LIME 301100Z 3012/3112 VRB04KT CAVOK TEMPO 3100/3106 3000 BR

Observations et prévisions météorologiques de plus de 4000 aéroports (messages METAR et TAF).

Les stations disponibles sont représentées par des disques jaunes et rouges sur la carte.

Passer la souris dessus pour voir le nom de la station.

Cliquer dessus pour voir les observations et prévisions météorologiques.

Pour changer de carte: cliquez sur les boutons verts avec une croix noire pour zoomer, sur le bouton vert avec un tiret pour effectuer un zoom arrière, ou sur les flèches vertes pour les cartes adjacentes.


METAR-TAF: